Accueil
METAR-TAF:

METAR-TAF

Aéroports :

Aéroport de Melilla

Melilla, Espagne

latitude: 35-17N, longitude: 002-57W, altitude: 47 m

Observation

Le bulletin a été fait il y a 54 minutes, à 21:00 UTC
Vent 4 kt de sud-est, variant entre est et sud/sud-est
Température 17°C
Humidité 82%
Pression 1014 hPa
Visibilité 10 km ou plus
pas de nuages en-dessous de 1500 mètres et pas de cumulonimbus.

METAR: GEML 222100Z AUTO 13004KT 100V160 CAVOK 17/14 Q1014

Heure: 23:54 (21:54 UTC)

Prévision

Le bulletin a été fait il y a 4 heures et 54 minutes, à 17:00 UTC
Prévision valable du 22 à 18 UTC au 23 à 18 UTC
Vent 5 kt de est/sud-est
Visibilité 10 km ou plus
Quelques nuages à une hauteur de 2000 ft

TAF: GEML 221700Z 2218/2318 12005KT 9999 FEW020 TX20/2315Z TN13/2305Z

Observations et prévisions météorologiques de plus de 4000 aéroports (messages METAR et TAF).

Les stations disponibles sont représentées par des disques jaunes et rouges sur la carte.

Passer la souris dessus pour voir le nom de la station.

Cliquer dessus pour voir les observations et prévisions météorologiques.

Pour changer de carte: cliquez sur les boutons verts avec une croix noire pour zoomer, sur le bouton vert avec un tiret pour effectuer un zoom arrière, ou sur les flèches vertes pour les cartes adjacentes.


METAR-TAF: